Time;durP1;ratioP1;P1;durP2;ratioP2;P2;SDS_P1;SDS_P2;PMS_P1;PMS_P2;Temp;Humidity;BMP_temperature;BMP_pressure;BME280_temperature;BME280_humidity;BME280_pressure;Samples;Min_cycle;Max_cycle;Signal;HPM_P1;HPM_P2
2020/12/28 00:01:28;;;;;;;0.88;0.40;;;;;;;;;;4967984;28;20100;-61
2020/12/28 00:03:56;;;;;;;0.00;0.00;;;;;;;;;;4953289;28;20217;-60
2020/12/28 00:06:23;;;;;;;0.00;0.00;;;;;;;;;;4970118;28;20035;-61
2020/12/28 00:08:49;;;;;;;0.00;0.00;;;;;;;;;;4936918;28;20072;-59
2020/12/28 00:11:18;;;;;;;0.00;0.00;;;;;;;;;;4949248;28;20763;-60
2020/12/28 00:13:46;;;;;;;0.00;0.00;;;;;;;;;;4968225;28;20026;-59
2020/12/28 00:16:16;;;;;;;0.00;0.00;;;;;;;;;;4971358;28;20104;-61
2020/12/28 00:18:42;;;;;;;0.00;0.00;;;;;;;;;;4969280;28;20476;-61
2020/12/28 00:21:08;;;;;;;0.00;0.00;;;;;;;;;;4950419;28;20062;-60
2020/12/28 00:23:36;;;;;;;0.00;0.00;;;;;;;;;;4968486;28;20771;-60
2020/12/28 00:26:06;;;;;;;0.10;0.10;;;;;;;;;;4969139;28;20116;-61
2020/12/28 00:28:33;;;;;;;2.75;1.02;;;;;;;;;;4968265;28;20104;-59
2020/12/28 00:30:59;;;;;;;0.00;0.00;;;;;;;;;;4942814;28;20178;-60
2020/12/28 00:33:26;;;;;;;0.00;0.00;;;;;;;;;;4968860;28;20508;-59
2020/12/28 00:35:54;;;;;;;0.00;0.00;;;;;;;;;;4952143;28;20026;-61
2020/12/28 00:38:20;;;;;;;0.00;0.00;;;;;;;;;;4934732;28;20283;-60
2020/12/28 00:40:48;;;;;;;0.00;0.00;;;;;;;;;;4971212;28;20030;-61
2020/12/28 00:43:13;;;;;;;0.00;0.00;;;;;;;;;;4949731;28;20057;-60
2020/12/28 00:45:41;;;;;;;0.00;0.00;;;;;;;;;;4968829;28;20040;-60
2020/12/28 00:48:09;;;;;;;0.00;0.00;;;;;;;;;;4952111;28;20042;-60
2020/12/28 00:50:34;;;;;;;0.00;0.00;;;;;;;;;;4967116;28;20061;-60
2020/12/28 00:53:00;;;;;;;0.00;0.00;;;;;;;;;;4968608;28;20398;-61
2020/12/28 00:55:27;;;;;;;0.00;0.00;;;;;;;;;;4968339;28;20026;-61
2020/12/28 00:57:53;;;;;;;3.92;0.60;;;;;;;;;;4951933;28;20030;-59
2020/12/28 01:00:21;;;;;;;0.00;0.00;;;;;;;;;;4970754;28;20041;-61
2020/12/28 01:02:47;;;;;;;0.00;0.00;;;;;;;;;;4963986;28;20038;-62
2020/12/28 01:05:12;;;;;;;0.00;0.00;;;;;;;;;;4968698;28;20045;-61
2020/12/28 01:07:40;;;;;;;0.00;0.00;;;;;;;;;;4968571;28;20247;-60
2020/12/28 01:10:10;;;;;;;0.00;0.00;;;;;;;;;;4968566;28;20042;-60
2020/12/28 01:12:38;;;;;;;0.00;0.00;;;;;;;;;;4967953;28;20045;-61
2020/12/28 01:15:06;;;;;;;0.00;0.00;;;;;;;;;;4950564;28;20040;-61
2020/12/28 01:17:32;;;;;;;0.00;0.00;;;;;;;;;;4966564;28;20627;-61
2020/12/28 01:20:02;;;;;;;0.00;0.00;;;;;;;;;;4950516;28;20033;-60
2020/12/28 01:22:30;;;;;;;0.00;0.00;;;;;;;;;;4965369;28;20076;-61
2020/12/28 01:24:58;;;;;;;0.00;0.00;;;;;;;;;;4950825;28;20081;-61
2020/12/28 01:27:23;;;;;;;0.10;0.10;;;;;;;;;;4967204;28;20026;-60
2020/12/28 01:29:51;;;;;;;0.10;0.10;;;;;;;;;;4932517;28;20038;-59
2020/12/28 01:32:16;;;;;;;0.00;0.00;;;;;;;;;;4949142;28;20627;-61
2020/12/28 01:34:44;;;;;;;0.15;0.15;;;;;;;;;;4949434;28;20113;-60
2020/12/28 01:37:12;;;;;;;0.00;0.00;;;;;;;;;;4963815;28;20041;-60
2020/12/28 01:39:38;;;;;;;0.00;0.00;;;;;;;;;;4968913;28;20113;-61
2020/12/28 01:42:06;;;;;;;0.00;0.00;;;;;;;;;;4949880;28;20291;-61
2020/12/28 01:44:31;;;;;;;0.00;0.00;;;;;;;;;;4968827;28;20041;-60
2020/12/28 01:46:57;;;;;;;0.00;0.00;;;;;;;;;;4969102;28;20041;-59
2020/12/28 01:49:22;;;;;;;0.00;0.00;;;;;;;;;;4950193;28;20280;-60
2020/12/28 01:51:47;;;;;;;0.00;0.00;;;;;;;;;;4952152;28;20154;-61
2020/12/28 01:54:19;;;;;;;0.00;0.00;;;;;;;;;;4968295;28;20629;-61
2020/12/28 01:56:48;;;;;;;0.00;0.00;;;;;;;;;;4937897;28;20058;-61
2020/12/28 01:59:16;;;;;;;0.10;0.10;;;;;;;;;;4970869;28;20084;-60
2020/12/28 02:01:44;;;;;;;0.00;0.00;;;;;;;;;;4948396;28;20211;-62
2020/12/28 02:04:13;;;;;;;0.00;0.00;;;;;;;;;;4956583;28;20042;-60
2020/12/28 02:06:38;;;;;;;0.00;0.00;;;;;;;;;;4971915;28;22273;-61
2020/12/28 02:09:06;;;;;;;0.00;0.00;;;;;;;;;;4951910;28;20037;-61
2020/12/28 02:11:36;;;;;;;0.00;0.00;;;;;;;;;;4967677;28;20026;-60
2020/12/28 02:14:02;;;;;;;0.00;0.00;;;;;;;;;;4970097;28;20030;-61
2020/12/28 02:16:30;;;;;;;0.00;0.00;;;;;;;;;;4954052;28;20469;-62
2020/12/28 02:18:55;;;;;;;0.10;0.10;;;;;;;;;;4971807;28;20971;-62
2020/12/28 02:21:21;;;;;;;0.00;0.00;;;;;;;;;;4971595;28;20042;-60
2020/12/28 02:23:51;;;;;;;0.00;0.00;;;;;;;;;;4971737;28;20054;-60
2020/12/28 02:29:56;;;;;;;0.00;0.00;;;;;;;;;;4967057;28;20039;-60
2020/12/28 02:32:26;;;;;;;0.00;0.00;;;;;;;;;;4970852;28;20147;-61
2020/12/28 02:34:51;;;;;;;0.30;0.30;;;;;;;;;;4972150;28;21539;-61
2020/12/28 02:37:19;;;;;;;0.10;0.10;;;;;;;;;;4967370;28;20044;-60
2020/12/28 02:39:44;;;;;;;0.00;0.00;;;;;;;;;;4969826;28;20018;-59
2020/12/28 02:42:10;;;;;;;0.00;0.00;;;;;;;;;;4948415;28;20034;-60
2020/12/28 02:44:37;;;;;;;0.00;0.00;;;;;;;;;;4953012;28;20048;-62
2020/12/28 02:47:07;;;;;;;0.00;0.00;;;;;;;;;;4952175;28;20120;-61
2020/12/28 02:49:33;;;;;;;0.00;0.00;;;;;;;;;;4950029;28;20050;-59
2020/12/28 02:51:59;;;;;;;0.00;0.00;;;;;;;;;;4950942;28;20038;-61
2020/12/28 02:54:24;;;;;;;0.00;0.00;;;;;;;;;;4968265;28;20191;-61
2020/12/28 02:56:50;;;;;;;0.20;0.20;;;;;;;;;;4969783;28;20046;-61
2020/12/28 02:59:15;;;;;;;0.00;0.00;;;;;;;;;;4968384;28;20077;-61
2020/12/28 03:01:49;;;;;;;0.00;0.00;;;;;;;;;;4948001;28;20416;-62
2020/12/28 03:04:17;;;;;;;0.00;0.00;;;;;;;;;;4967827;28;20038;-61
2020/12/28 03:06:45;;;;;;;0.00;0.00;;;;;;;;;;4950593;28;20108;-61
2020/12/28 03:09:12;;;;;;;0.00;0.00;;;;;;;;;;4948721;28;20042;-61
2020/12/28 03:11:40;;;;;;;0.00;0.00;;;;;;;;;;4966340;28;20030;-61
2020/12/28 03:14:08;;;;;;;0.00;0.00;;;;;;;;;;4966557;28;20038;-62
2020/12/28 03:16:33;;;;;;;0.00;0.00;;;;;;;;;;4953569;28;20062;-61
2020/12/28 03:18:59;;;;;;;0.00;0.00;;;;;;;;;;4966564;28;20606;-61
2020/12/28 03:21:29;;;;;;;0.00;0.00;;;;;;;;;;4942830;28;20093;-62
2020/12/28 03:24:01;;;;;;;0.00;0.00;;;;;;;;;;4932581;28;20145;-63
2020/12/28 03:26:34;;;;;;;0.00;0.00;;;;;;;;;;4946142;28;20120;-61
2020/12/28 03:28:59;;;;;;;0.00;0.00;;;;;;;;;;4947780;28;20039;-62
2020/12/28 03:31:29;;;;;;;0.00;0.00;;;;;;;;;;4950257;28;20109;-61
2020/12/28 03:37:33;;;;;;;0.10;0.10;;;;;;;;;;4947577;28;20036;-60
2020/12/28 03:40:01;;;;;;;0.00;0.00;;;;;;;;;;4950837;28;20155;-60
2020/12/28 03:42:26;;;;;;;0.00;0.00;;;;;;;;;;4929305;28;20035;-60
2020/12/28 03:44:54;;;;;;;0.00;0.00;;;;;;;;;;4931508;28;20027;-61
2020/12/28 03:47:21;;;;;;;0.00;0.00;;;;;;;;;;4931211;28;20117;-60
2020/12/28 03:49:47;;;;;;;0.00;0.00;;;;;;;;;;4912424;28;20553;-61
2020/12/28 03:52:15;;;;;;;0.00;0.00;;;;;;;;;;4948684;28;20018;-63
2020/12/28 03:54:46;;;;;;;0.00;0.00;;;;;;;;;;4931501;28;20498;-62
2020/12/28 03:57:12;;;;;;;0.00;0.00;;;;;;;;;;4947912;28;20035;-61
2020/12/28 03:59:38;;;;;;;0.00;0.00;;;;;;;;;;4948751;28;20062;-61
2020/12/28 04:02:03;;;;;;;0.00;0.00;;;;;;;;;;4949082;28;20038;-60
2020/12/28 04:04:33;;;;;;;0.00;0.00;;;;;;;;;;4932284;28;20129;-62
2020/12/28 04:06:58;;;;;;;0.00;0.00;;;;;;;;;;4909336;28;20050;-62
2020/12/28 04:09:26;;;;;;;0.00;0.00;;;;;;;;;;4950236;28;20068;-62
2020/12/28 04:11:56;;;;;;;0.00;0.00;;;;;;;;;;4947062;28;20035;-62
2020/12/28 04:14:22;;;;;;;0.00;0.00;;;;;;;;;;4915313;28;20042;-62
2020/12/28 04:16:58;;;;;;;0.00;0.00;;;;;;;;;;4929575;28;21808;-62
2020/12/28 04:19:26;;;;;;;0.00;0.00;;;;;;;;;;4947947;28;20056;-61
2020/12/28 04:21:56;;;;;;;0.40;0.40;;;;;;;;;;4930909;28;20059;-62
2020/12/28 04:24:24;;;;;;;0.00;0.00;;;;;;;;;;4943020;28;20050;-61
2020/12/28 04:26:54;;;;;;;0.00;0.00;;;;;;;;;;4967921;28;20270;-61
2020/12/28 04:29:22;;;;;;;0.00;0.00;;;;;;;;;;4967178;28;20042;-62
2020/12/28 04:31:50;;;;;;;0.00;0.00;;;;;;;;;;4948083;28;20046;-60
2020/12/28 04:34:15;;;;;;;0.20;0.20;;;;;;;;;;4952261;28;20038;-60
2020/12/28 04:36:45;;;;;;;0.00;0.00;;;;;;;;;;4953527;28;20045;-62
2020/12/28 04:39:13;;;;;;;0.15;0.13;;;;;;;;;;4969523;28;20030;-61
2020/12/28 04:41:39;;;;;;;0.00;0.00;;;;;;;;;;4965666;28;20069;-62
2020/12/28 04:44:06;;;;;;;0.00;0.00;;;;;;;;;;4970023;28;20045;-61
2020/12/28 04:46:35;;;;;;;0.00;0.00;;;;;;;;;;4947293;28;20026;-61
2020/12/28 04:49:03;;;;;;;0.00;0.00;;;;;;;;;;4966650;28;20046;-62
2020/12/28 04:51:33;;;;;;;0.00;0.00;;;;;;;;;;4964726;28;20100;-62
2020/12/28 04:54:24;;;;;;;0.00;0.00;;;;;;;;;;4964453;28;20149;-61
2020/12/28 04:57:00;;;;;;;0.00;0.00;;;;;;;;;;4949263;28;20034;-61
2020/12/28 04:59:28;;;;;;;0.32;0.32;;;;;;;;;;4960199;28;20037;-62
2020/12/28 05:01:53;;;;;;;0.00;0.00;;;;;;;;;;4967322;28;20613;-62
2020/12/28 05:04:22;;;;;;;0.00;0.00;;;;;;;;;;4968698;28;20026;-62
2020/12/28 05:07:02;;;;;;;0.00;0.00;;;;;;;;;;4969731;28;20557;-61
2020/12/28 05:09:28;;;;;;;0.00;0.00;;;;;;;;;;4966219;28;20049;-62
2020/12/28 05:12:03;;;;;;;0.00;0.00;;;;;;;;;;4965097;28;20038;-61
2020/12/28 05:14:29;;;;;;;0.00;0.00;;;;;;;;;;4966736;28;20041;-62
2020/12/28 05:16:58;;;;;;;0.00;0.00;;;;;;;;;;4962335;28;20050;-62
2020/12/28 05:19:28;;;;;;;0.00;0.00;;;;;;;;;;4951068;28;20034;-61
2020/12/28 05:21:59;;;;;;;0.00;0.00;;;;;;;;;;4964570;28;20030;-62
2020/12/28 05:24:25;;;;;;;0.00;0.00;;;;;;;;;;4966102;28;20160;-61
2020/12/28 05:26:53;;;;;;;0.00;0.00;;;;;;;;;;4969141;28;20034;-62
2020/12/28 05:29:25;;;;;;;0.00;0.00;;;;;;;;;;4972426;28;20402;-61
2020/12/28 05:31:53;;;;;;;0.00;0.00;;;;;;;;;;4972029;28;20034;-60
2020/12/28 05:34:24;;;;;;;0.00;0.00;;;;;;;;;;4968477;28;20034;-60
2020/12/28 05:36:53;;;;;;;0.00;0.00;;;;;;;;;;4970508;28;20026;-61
2020/12/28 05:39:20;;;;;;;0.13;0.13;;;;;;;;;;4971316;28;21716;-61
2020/12/28 05:42:06;;;;;;;0.00;0.00;;;;;;;;;;4971898;28;20764;-61
2020/12/28 05:44:34;;;;;;;0.00;0.00;;;;;;;;;;4971316;28;20070;-60
2020/12/28 05:47:04;;;;;;;0.30;0.30;;;;;;;;;;4940089;28;20089;-60
2020/12/28 05:49:34;;;;;;;0.00;0.00;;;;;;;;;;4954537;28;20045;-60
2020/12/28 05:52:00;;;;;;;0.00;0.00;;;;;;;;;;4952296;28;20049;-61
2020/12/28 05:54:30;;;;;;;0.73;0.28;;;;;;;;;;4969643;28;20097;-61
2020/12/28 05:56:56;;;;;;;0.00;0.00;;;;;;;;;;4973136;28;21938;-61
2020/12/28 05:59:24;;;;;;;0.00;0.00;;;;;;;;;;4973205;28;20062;-61
2020/12/28 06:01:50;;;;;;;0.00;0.00;;;;;;;;;;4950335;28;20105;-61
2020/12/28 06:04:16;;;;;;;0.00;0.00;;;;;;;;;;4970617;28;20141;-62
2020/12/28 06:06:45;;;;;;;0.00;0.00;;;;;;;;;;4968927;28;20077;-62
2020/12/28 06:09:14;;;;;;;0.20;0.20;;;;;;;;;;4969167;28;20536;-62
2020/12/28 06:15:22;;;;;;;0.00;0.00;;;;;;;;;;4969059;28;20629;-60
2020/12/28 06:17:49;;;;;;;0.00;0.00;;;;;;;;;;4950176;28;20018;-61
2020/12/28 06:20:17;;;;;;;0.28;0.28;;;;;;;;;;4950989;28;20120;-61
2020/12/28 06:22:43;;;;;;;0.00;0.00;;;;;;;;;;4952126;28;20136;-61
2020/12/28 06:25:10;;;;;;;0.00;0.00;;;;;;;;;;4967830;28;20730;-61
2020/12/28 06:27:42;;;;;;;0.47;0.45;;;;;;;;;;4966263;28;20255;-62
2020/12/28 06:30:20;;;;;;;0.00;0.00;;;;;;;;;;4969711;28;20229;-62
2020/12/28 06:32:47;;;;;;;0.00;0.00;;;;;;;;;;4968257;28;20517;-63
2020/12/28 06:35:14;;;;;;;0.00;0.00;;;;;;;;;;4969867;28;20023;-62
2020/12/28 06:37:53;;;;;;;0.00;0.00;;;;;;;;;;4967391;28;20421;-62
2020/12/28 06:40:29;;;;;;;0.00;0.00;;;;;;;;;;4970762;28;20124;-62
2020/12/28 06:43:26;;;;;;;0.00;0.00;;;;;;;;;;4968160;28;20113;-62
2020/12/28 06:45:54;;;;;;;0.00;0.00;;;;;;;;;;4970083;28;20686;-62
2020/12/28 06:48:25;;;;;;;0.00;0.00;;;;;;;;;;4970240;28;20108;-62
2020/12/28 06:50:54;;;;;;;0.20;0.20;;;;;;;;;;4949795;28;20030;-62
2020/12/28 06:53:30;;;;;;;0.00;0.00;;;;;;;;;;4965745;28;20046;-61
2020/12/28 06:56:04;;;;;;;0.00;0.00;;;;;;;;;;4953044;28;20038;-61
2020/12/28 06:58:32;;;;;;;0.43;0.43;;;;;;;;;;4951664;28;20038;-61
2020/12/28 07:01:02;;;;;;;0.00;0.00;;;;;;;;;;4965603;28;20031;-61
2020/12/28 07:03:28;;;;;;;0.00;0.00;;;;;;;;;;4967520;28;20026;-62
2020/12/28 07:06:05;;;;;;;0.00;0.00;;;;;;;;;;4952242;28;20638;-62
2020/12/28 07:08:33;;;;;;;;;;;;;;;;;;4967650;28;20034;-60
2020/12/28 07:11:02;;;;;;;0.00;0.00;;;;;;;;;;4952214;28;20318;-61
2020/12/28 07:13:31;;;;;;;0.00;0.00;;;;;;;;;;4969735;28;20141;-61
2020/12/28 07:15:59;;;;;;;0.00;0.00;;;;;;;;;;4968583;28;20636;-61
2020/12/28 07:18:30;;;;;;;0.55;0.55;;;;;;;;;;4948617;28;20344;-61
2020/12/28 07:20:56;;;;;;;0.00;0.00;;;;;;;;;;4965603;28;20034;-62
2020/12/28 07:23:24;;;;;;;0.13;0.13;;;;;;;;;;4964477;28;20084;-62
2020/12/28 07:26:09;;;;;;;0.00;0.00;;;;;;;;;;4967497;28;20698;-63
2020/12/28 07:28:35;;;;;;;0.00;0.00;;;;;;;;;;4947883;28;20049;-61
2020/12/28 07:31:04;;;;;;;0.00;0.00;;;;;;;;;;4968935;28;20168;-61
2020/12/28 07:33:29;;;;;;;0.00;0.00;;;;;;;;;;4970604;28;20034;-60
2020/12/28 07:36:04;;;;;;;0.00;0.00;;;;;;;;;;4969038;28;20034;-61
2020/12/28 07:38:29;;;;;;;0.00;0.00;;;;;;;;;;4938910;28;20038;-61
2020/12/28 07:40:55;;;;;;;0.00;0.00;;;;;;;;;;4947049;28;20088;-62
2020/12/28 07:43:20;;;;;;;0.75;0.75;;;;;;;;;;4965798;28;20043;-62
2020/12/28 07:45:48;;;;;;;0.00;0.00;;;;;;;;;;4953020;28;20030;-61
2020/12/28 07:48:19;;;;;;;0.00;0.00;;;;;;;;;;4969184;28;20031;-63
2020/12/28 07:50:45;;;;;;;0.00;0.00;;;;;;;;;;4968576;28;20073;-62
2020/12/28 07:53:13;;;;;;;0.00;0.00;;;;;;;;;;4966850;28;20075;-61
2020/12/28 07:56:01;;;;;;;0.00;0.00;;;;;;;;;;4964492;28;21778;-63
2020/12/28 07:58:29;;;;;;;0.00;0.00;;;;;;;;;;4964991;28;20026;-62
2020/12/28 08:00:57;;;;;;;0.00;0.00;;;;;;;;;;4959519;28;20045;-63
2020/12/28 08:03:37;;;;;;;0.00;0.00;;;;;;;;;;4964748;28;20576;-62
2020/12/28 08:06:06;;;;;;;0.20;0.20;;;;;;;;;;4965121;28;20517;-62
2020/12/28 08:08:32;;;;;;;0.22;0.22;;;;;;;;;;4966807;28;20429;-63
2020/12/28 08:11:02;;;;;;;0.00;0.00;;;;;;;;;;4948500;28;20034;-61
2020/12/28 08:13:28;;;;;;;0.00;0.00;;;;;;;;;;4966250;28;20065;-61
2020/12/28 08:15:56;;;;;;;0.00;0.00;;;;;;;;;;4967795;28;20037;-61
2020/12/28 08:18:24;;;;;;;0.35;0.35;;;;;;;;;;4966019;28;20768;-61
2020/12/28 08:20:58;;;;;;;0.00;0.00;;;;;;;;;;4946123;28;20588;-63
2020/12/28 08:23:24;;;;;;;;;;;;;;;;;;4944279;28;20061;-61
2020/12/28 08:25:49;;;;;;;0.00;0.00;;;;;;;;;;4969291;28;19917;-62
2020/12/28 08:28:18;;;;;;;0.00;0.00;;;;;;;;;;4949615;28;20034;-61
2020/12/28 08:30:46;;;;;;;0.00;0.00;;;;;;;;;;4963536;28;20031;-61
2020/12/28 08:33:15;;;;;;;0.08;0.08;;;;;;;;;;4958556;28;20327;-63
2020/12/28 08:35:50;;;;;;;0.00;0.00;;;;;;;;;;4943712;28;20041;-61
2020/12/28 08:38:16;;;;;;;0.00;0.00;;;;;;;;;;4965558;28;20060;-61
2020/12/28 08:40:54;;;;;;;0.00;0.00;;;;;;;;;;4967497;28;20038;-61
2020/12/28 08:43:22;;;;;;;0.10;0.10;;;;;;;;;;4966269;28;20018;-61
2020/12/28 08:46:00;;;;;;;0.00;0.00;;;;;;;;;;4933410;28;20041;-62
2020/12/28 08:48:25;;;;;;;0.00;0.00;;;;;;;;;;4965051;28;20093;-61
2020/12/28 08:50:53;;;;;;;0.05;0.05;;;;;;;;;;4967666;28;20042;-61
2020/12/28 08:53:22;;;;;;;0.00;0.00;;;;;;;;;;4964717;28;20043;-61
2020/12/28 08:56:06;;;;;;;0.00;0.00;;;;;;;;;;4966794;28;20030;-61
2020/12/28 08:58:31;;;;;;;0.00;0.00;;;;;;;;;;4962171;28;20034;-63
2020/12/28 09:01:03;;;;;;;0.00;0.00;;;;;;;;;;4966909;28;20042;-61
2020/12/28 09:03:28;;;;;;;0.00;0.00;;;;;;;;;;4969707;28;20026;-61
2020/12/28 09:05:54;;;;;;;0.05;0.05;;;;;;;;;;4952191;28;20088;-61
2020/12/28 09:08:23;;;;;;;0.52;0.45;;;;;;;;;;4968535;28;20042;-62
2020/12/28 09:10:50;;;;;;;0.00;0.00;;;;;;;;;;4969609;28;21618;-62
2020/12/28 09:13:18;;;;;;;0.00;0.00;;;;;;;;;;4970019;28;20042;-63
2020/12/28 09:15:46;;;;;;;0.65;0.65;;;;;;;;;;4949019;28;20057;-63
2020/12/28 09:18:11;;;;;;;0.00;0.00;;;;;;;;;;4971005;28;20478;-63
2020/12/28 09:20:37;;;;;;;0.75;0.75;;;;;;;;;;4969526;28;20675;-63
2020/12/28 09:23:03;;;;;;;0.05;0.05;;;;;;;;;;4967650;28;20245;-62
2020/12/28 09:25:31;;;;;;;0.30;0.30;;;;;;;;;;4968519;28;20042;-61
2020/12/28 09:27:59;;;;;;;0.15;0.15;;;;;;;;;;4952457;28;20529;-63
2020/12/28 09:30:27;;;;;;;0.00;0.00;;;;;;;;;;4969096;28;20092;-61
2020/12/28 09:32:55;;;;;;;0.00;0.00;;;;;;;;;;4968243;28;20050;-61
2020/12/28 09:35:20;;;;;;;0.00;0.00;;;;;;;;;;4952852;28;20031;-62
2020/12/28 09:37:46;;;;;;;0.00;0.00;;;;;;;;;;4944990;28;20098;-63
2020/12/28 09:40:13;;;;;;;0.00;0.00;;;;;;;;;;4951096;28;20181;-62
2020/12/28 09:42:39;;;;;;;0.20;0.20;;;;;;;;;;4941722;28;20034;-63
2020/12/28 09:45:36;;;;;;;0.10;0.10;;;;;;;;;;4953716;28;20022;-63
2020/12/28 09:47:52;;;;;;;0.52;0.52;;;;;;;;;;4969783;28;20034;-62
2020/12/28 09:50:17;;;;;;;0.00;0.00;;;;;;;;;;4968681;28;20061;-62
2020/12/28 09:52:45;;;;;;;0.05;0.05;;;;;;;;;;4963776;28;20473;-62
2020/12/28 09:55:13;;;;;;;0.00;0.00;;;;;;;;;;4968653;28;20025;-63
2020/12/28 09:57:41;;;;;;;0.00;0.00;;;;;;;;;;4967237;28;20099;-61
2020/12/28 10:00:08;;;;;;;0.05;0.05;;;;;;;;;;4968059;28;20449;-63
2020/12/28 10:02:34;;;;;;;0.00;0.00;;;;;;;;;;4967215;28;20022;-64
2020/12/28 10:05:02;;;;;;;0.00;0.00;;;;;;;;;;4967686;28;20507;-62
2020/12/28 10:07:28;;;;;;;0.00;0.00;;;;;;;;;;4967558;28;20677;-62
2020/12/28 10:09:53;;;;;;;0.00;0.00;;;;;;;;;;4970746;28;20038;-63
2020/12/28 10:12:19;;;;;;;0.00;0.00;;;;;;;;;;4967620;28;20023;-63
2020/12/28 10:14:47;;;;;;;0.00;0.00;;;;;;;;;;4968927;28;20042;-63
2020/12/28 10:17:12;;;;;;;0.00;0.00;;;;;;;;;;4968874;28;20089;-63
2020/12/28 10:19:37;;;;;;;0.10;0.10;;;;;;;;;;4954292;28;20026;-63
2020/12/28 10:22:03;;;;;;;0.08;0.08;;;;;;;;;;4931495;28;20292;-62
2020/12/28 10:24:28;;;;;;;0.00;0.00;;;;;;;;;;4968061;28;20194;-64
2020/12/28 10:26:56;;;;;;;0.80;0.80;;;;;;;;;;4968798;28;20042;-63
2020/12/28 10:29:24;;;;;;;1.95;0.90;;;;;;;;;;4970659;28;20119;-62
2020/12/28 10:31:49;;;;;;;0.43;0.43;;;;;;;;;;4965020;28;20454;-64
2020/12/28 10:34:15;;;;;;;0.00;0.00;;;;;;;;;;4968682;28;20081;-63
2020/12/28 10:36:43;;;;;;;0.00;0.00;;;;;;;;;;4968056;28;20136;-64
2020/12/28 10:39:13;;;;;;;0.00;0.00;;;;;;;;;;4967314;28;20606;-64
2020/12/28 10:41:41;;;;;;;0.00;0.00;;;;;;;;;;4947585;28;20552;-64
2020/12/28 10:44:10;;;;;;;0.00;0.00;;;;;;;;;;4964245;28;20117;-64
2020/12/28 10:46:38;;;;;;;0.00;0.00;;;;;;;;;;4972148;28;20465;-64
2020/12/28 10:49:07;;;;;;;0.00;0.00;;;;;;;;;;4947057;28;20058;-62
2020/12/28 10:51:37;;;;;;;0.00;0.00;;;;;;;;;;4948727;28;20046;-63
2020/12/28 10:54:02;;;;;;;0.08;0.08;;;;;;;;;;4968581;28;20038;-63
2020/12/28 10:56:28;;;;;;;0.00;0.00;;;;;;;;;;4950771;28;20391;-63
2020/12/28 10:58:57;;;;;;;0.00;0.00;;;;;;;;;;4965211;28;20097;-64
2020/12/28 11:01:23;;;;;;;0.00;0.00;;;;;;;;;;4952110;28;20033;-64
2020/12/28 11:03:50;;;;;;;0.00;0.00;;;;;;;;;;4966783;28;20381;-63
2020/12/28 11:06:17;;;;;;;0.00;0.00;;;;;;;;;;4963610;28;20210;-64
2020/12/28 11:08:42;;;;;;;0.00;0.00;;;;;;;;;;4967096;28;20038;-65
2020/12/28 11:11:13;;;;;;;1.08;0.98;;;;;;;;;;4967851;28;20206;-64
2020/12/28 11:13:38;;;;;;;0.00;0.00;;;;;;;;;;4963259;28;20026;-65
2020/12/28 11:16:06;;;;;;;0.00;0.00;;;;;;;;;;4966093;28;20038;-64
2020/12/28 11:18:38;;;;;;;0.00;0.00;;;;;;;;;;4963783;28;20400;-65
2020/12/28 11:21:03;;;;;;;0.00;0.00;;;;;;;;;;4953266;28;20121;-63
2020/12/28 11:23:58;;;;;;;0.20;0.20;;;;;;;;;;4931868;28;20054;-63
2020/12/28 11:26:15;;;;;;;0.00;0.00;;;;;;;;;;4968156;28;20084;-64
2020/12/28 11:28:40;;;;;;;0.00;0.00;;;;;;;;;;4958963;28;20096;-65
2020/12/28 11:31:10;;;;;;;0.10;0.10;;;;;;;;;;4969022;28;20503;-65
2020/12/28 11:33:38;;;;;;;0.08;0.08;;;;;;;;;;4946679;28;20286;-64
2020/12/28 11:36:03;;;;;;;0.00;0.00;;;;;;;;;;4964644;28;20153;-64
2020/12/28 11:38:31;;;;;;;0.32;0.32;;;;;;;;;;4952749;28;20086;-64
2020/12/28 11:41:01;;;;;;;0.08;0.08;;;;;;;;;;4969338;28;20034;-65
2020/12/28 11:43:32;;;;;;;0.00;0.00;;;;;;;;;;4964025;28;20517;-65
2020/12/28 11:46:07;;;;;;;0.10;0.10;;;;;;;;;;5059460;27;20404;-65
2020/12/28 11:48:33;;;;;;;0.00;0.00;;;;;;;;;;5069302;28;20209;-64
2020/12/28 11:51:00;;;;;;;0.00;0.00;;;;;;;;;;5078203;28;20015;-63
2020/12/28 11:53:26;;;;;;;0.00;0.00;;;;;;;;;;5074701;28;21672;-63
2020/12/28 11:58:49;;;;;;;0.10;0.10;;;;;;;;;;5059780;27;20040;-64
2020/12/28 12:01:18;;;;;;;0.00;0.00;;;;;;;;;;5087437;27;20632;-64
2020/12/28 12:03:49;;;;;;;0.00;0.00;;;;;;;;;;5071825;27;20226;-65
2020/12/28 12:06:15;;;;;;;0.00;0.00;;;;;;;;;;5073179;28;20111;-63
2020/12/28 12:09:09;;;;;;;0.00;0.00;;;;;;;;;;5067830;28;20074;-63
2020/12/28 12:11:28;;;;;;;0.88;0.43;;;;;;;;;;5072601;28;20584;-63
2020/12/28 12:13:56;;;;;;;0.00;0.00;;;;;;;;;;5073969;28;20553;-63
2020/12/28 12:16:27;;;;;;;0.00;0.00;;;;;;;;;;5074500;28;20190;-63
2020/12/28 12:18:53;;;;;;;0.10;0.10;;;;;;;;;;5079333;28;20043;-63
2020/12/28 12:21:20;;;;;;;0.00;0.00;;;;;;;;;;5073092;28;20036;-63
2020/12/28 12:23:50;;;;;;;0.00;0.00;;;;;;;;;;5068010;28;20024;-65
2020/12/28 12:26:20;;;;;;;0.00;0.00;;;;;;;;;;5071570;28;20545;-62
2020/12/28 12:28:48;;;;;;;0.00;0.00;;;;;;;;;;5072460;28;20100;-63
2020/12/28 12:31:15;;;;;;;0.00;0.00;;;;;;;;;;5076703;28;20080;-63
2020/12/28 12:33:43;;;;;;;0.00;0.00;;;;;;;;;;5071838;28;20046;-64
2020/12/28 12:36:16;;;;;;;0.00;0.00;;;;;;;;;;5072643;28;20072;-65
2020/12/28 12:38:44;;;;;;;0.13;0.13;;;;;;;;;;5071550;28;20035;-65
2020/12/28 12:41:18;;;;;;;0.00;0.00;;;;;;;;;;5072383;28;20443;-65
2020/12/28 12:43:46;;;;;;;1.00;0.22;;;;;;;;;;5072157;28;21694;-64
2020/12/28 12:46:12;;;;;;;0.00;0.00;;;;;;;;;;5297573;22;20170;-71
2020/12/28 12:48:50;;;;;;;0.00;0.00;;;;;;;;;;5005984;28;20402;-74
2020/12/28 12:51:16;;;;;;;0.00;0.00;;;;;;;;;;5012171;28;20041;-71
2020/12/28 12:53:44;;;;;;;1.23;1.23;;;;;;;;;;5006069;28;20395;-72
2020/12/28 12:56:09;;;;;;;0.00;0.00;;;;;;;;;;5001306;28;20092;-72
2020/12/28 12:58:40;;;;;;;0.00;0.00;;;;;;;;;;4994119;28;20152;-71
2020/12/28 13:01:11;;;;;;;0.00;0.00;;;;;;;;;;4997846;28;20053;-71
2020/12/28 13:03:36;;;;;;;0.00;0.00;;;;;;;;;;4995591;28;20029;-72
2020/12/28 13:06:17;;;;;;;1.92;0.22;;;;;;;;;;4995117;28;20547;-74
2020/12/28 13:09:07;;;;;;;0.00;0.00;;;;;;;;;;5005083;28;20033;-70
2020/12/28 13:15:07;;;;;;;0.00;0.00;;;;;;;;;;4988609;28;20093;-72
2020/12/28 13:18:04;;;;;;;0.30;0.30;;;;;;;;;;4986734;28;20034;-72
2020/12/28 13:31:30;;;;;;;0.00;0.00;;;;;;;;;;4989344;28;20041;-72
2020/12/28 13:33:56;;;;;;;0.00;0.00;;;;;;;;;;4992568;28;20658;-71
2020/12/28 13:36:28;;;;;;;0.00;0.00;;;;;;;;;;4991318;28;20574;-72
2020/12/28 13:38:56;;;;;;;0.00;0.00;;;;;;;;;;4986780;28;20343;-73
2020/12/28 13:41:22;;;;;;;0.10;0.10;;;;;;;;;;4987594;28;20022;-74
2020/12/28 13:43:48;;;;;;;0.00;0.00;;;;;;;;;;4983791;28;20913;-74
2020/12/28 13:46:16;;;;;;;0.00;0.00;;;;;;;;;;4985229;28;20625;-74
2020/12/28 13:48:57;;;;;;;0.10;0.10;;;;;;;;;;5003098;28;20042;-74
2020/12/28 13:58:03;;;;;;;0.00;0.00;;;;;;;;;;4991494;28;20038;-72
2020/12/28 14:00:29;;;;;;;0.10;0.10;;;;;;;;;;5007923;28;21923;-73
2020/12/28 14:02:58;;;;;;;0.65;0.13;;;;;;;;;;4990238;28;20129;-73
2020/12/28 14:05:26;;;;;;;5.05;2.08;;;;;;;;;;4988907;28;21465;-73
2020/12/28 14:08:05;;;;;;;0.00;0.00;;;;;;;;;;4988725;28;20037;-73
2020/12/28 14:10:31;;;;;;;0.00;0.00;;;;;;;;;;4989979;28;20041;-71
2020/12/28 14:13:13;;;;;;;0.00;0.00;;;;;;;;;;5013998;28;20136;-70
2020/12/28 14:15:40;;;;;;;0.10;0.10;;;;;;;;;;4997333;28;20038;-72
2020/12/28 14:18:27;;;;;;;0.00;0.00;;;;;;;;;;4999160;28;20038;-72
2020/12/28 14:28:04;;;;;;;0.00;0.00;;;;;;;;;;4997714;28;20052;-73
2020/12/28 14:37:14;;;;;;;0.00;0.00;;;;;;;;;;4995040;28;20120;-74
2020/12/28 14:39:40;;;;;;;0.00;0.00;;;;;;;;;;4997073;28;20425;-74
2020/12/28 14:42:06;;;;;;;0.00;0.00;;;;;;;;;;4987520;28;20030;-73
2020/12/28 14:44:36;;;;;;;0.10;0.10;;;;;;;;;;4986959;28;20037;-75
2020/12/28 14:47:34;;;;;;;0.00;0.00;;;;;;;;;;4991830;28;20325;-73
2020/12/28 14:49:59;;;;;;;0.75;0.75;;;;;;;;;;4987783;28;20613;-74
2020/12/28 14:52:56;;;;;;;0.00;0.00;;;;;;;;;;4989415;28;20033;-73
2020/12/28 14:55:34;;;;;;;0.00;0.00;;;;;;;;;;4986095;28;20116;-72
2020/12/28 14:58:01;;;;;;;;;;;;;;;;;;4990482;28;20194;-72
2020/12/28 15:04:11;;;;;;;0.00;0.00;;;;;;;;;;4986955;28;20080;-73
2020/12/28 15:06:37;;;;;;;0.00;0.00;;;;;;;;;;5000402;28;20030;-75
2020/12/28 15:09:05;;;;;;;0.00;0.00;;;;;;;;;;4999015;28;21948;-74
2020/12/28 15:11:31;;;;;;;0.00;0.00;;;;;;;;;;4985305;28;20029;-74
2020/12/28 15:13:57;;;;;;;0.00;0.00;;;;;;;;;;5000602;28;20725;-76
2020/12/28 15:16:26;;;;;;;0.00;0.00;;;;;;;;;;4983252;28;20080;-75
2020/12/28 15:19:01;;;;;;;0.00;0.00;;;;;;;;;;4982698;28;20037;-74
2020/12/28 15:21:30;;;;;;;0.05;0.05;;;;;;;;;;4987739;28;20022;-75
2020/12/28 15:23:56;;;;;;;0.00;0.00;;;;;;;;;;4980198;28;20034;-74
2020/12/28 15:26:22;;;;;;;0.00;0.00;;;;;;;;;;4998538;28;20041;-73
2020/12/28 15:28:48;;;;;;;0.00;0.00;;;;;;;;;;4982332;28;20028;-73
2020/12/28 15:31:38;;;;;;;3.53;1.38;;;;;;;;;;4982907;28;20038;-74
2020/12/28 15:34:34;;;;;;;0.00;0.00;;;;;;;;;;4996107;28;20577;-75
2020/12/28 15:43:39;;;;;;;0.00;0.00;;;;;;;;;;4984481;28;20057;-73
2020/12/28 15:46:05;;;;;;;0.00;0.00;;;;;;;;;;4997427;28;20120;-72
2020/12/28 15:56:01;;;;;;;0.25;0.25;;;;;;;;;;4983982;28;20451;-74
2020/12/28 15:58:36;;;;;;;3.60;1.77;;;;;;;;;;4983160;28;20029;-73
2020/12/28 16:04:37;;;;;;;0.00;0.00;;;;;;;;;;4981700;28;21536;-74